Time;durP1;ratioP1;P1;durP2;ratioP2;P2;SDS_P1;SDS_P2;PMS_P1;PMS_P2;Temp;Humidity;BMP_temperature;BMP_pressure;BME280_temperature;BME280_humidity;BME280_pressure;Samples;Min_cycle;Max_cycle;Signal;HPM_P1;HPM_P2
2024/01/04 00:00:52;;;;;;;6.77;4.30;;;7.80;99.90;;;;;;5012966;28;20452;-88
2024/01/04 00:03:22;;;;;;;7.33;4.70;;;7.80;99.90;;;;;;5012554;28;20443;-88
2024/01/04 00:05:50;;;;;;;5.90;4.70;;;7.80;99.90;;;;;;5014106;28;20463;-88
2024/01/04 00:08:19;;;;;;;7.93;4.70;;;7.80;99.90;;;;;;5016493;28;20463;-88
2024/01/04 00:10:47;;;;;;;8.20;5.07;;;7.80;99.90;;;;;;5016779;28;20456;-88
2024/01/04 00:13:15;;;;;;;4.53;4.00;;;7.80;99.90;;;;;;5017677;28;21015;-88
2024/01/04 00:15:44;;;;;;;6.93;4.73;;;7.80;99.90;;;;;;5017602;28;20483;-88
2024/01/04 00:18:14;;;;;;;6.17;4.83;;;7.80;99.90;;;;;;5016472;28;20468;-88
2024/01/04 00:20:43;;;;;;;7.07;4.80;;;7.80;99.90;;;;;;5016456;28;20562;-88
2024/01/04 00:23:12;;;;;;;7.37;4.17;;;7.80;99.90;;;;;;5016395;28;20483;-89
2024/01/04 00:25:40;;;;;;;5.83;4.33;;;7.80;99.90;;;;;;5016840;28;20473;-88
2024/01/04 00:28:08;;;;;;;6.37;4.30;;;7.80;99.90;;;;;;5016515;28;20455;-88
2024/01/04 00:30:36;;;;;;;9.57;4.60;;;7.80;99.90;;;;;;5017999;28;20439;-88
2024/01/04 00:33:05;;;;;;;7.00;3.83;;;7.70;99.90;;;;;;5016672;28;20479;-88
2024/01/04 00:35:35;;;;;;;7.73;4.00;;;7.70;99.90;;;;;;5016175;28;20547;-88
2024/01/04 00:38:04;;;;;;;3.60;2.60;;;7.70;99.90;;;;;;5016169;28;20484;-88
2024/01/04 00:40:33;;;;;;;3.10;2.53;;;7.70;99.90;;;;;;5016396;28;20446;-88
2024/01/04 00:43:02;;;;;;;3.97;2.43;;;7.60;99.90;;;;;;5016614;28;20892;-88
2024/01/04 00:45:30;;;;;;;3.37;2.30;;;7.60;99.90;;;;;;5016330;28;20543;-89
2024/01/04 00:47:59;;;;;;;3.40;2.33;;;7.60;99.90;;;;;;5016520;28;20455;-88
2024/01/04 00:50:27;;;;;;;3.80;2.43;;;7.60;99.90;;;;;;5016116;28;20454;-88
2024/01/04 00:52:57;;;;;;;4.20;2.20;;;7.50;99.90;;;;;;5016001;28;20455;-88
2024/01/04 00:55:36;;;;;;;5.90;2.60;;;7.50;99.90;;;;;;5015949;28;20478;-88
2024/01/04 00:58:05;;;;;;;2.60;2.13;;;7.50;99.90;;;;;;5016120;28;20926;-88
2024/01/04 01:00:34;;;;;;;5.93;2.40;;;7.50;99.90;;;;;;5016065;28;20509;-88
2024/01/04 01:03:02;;;;;;;2.47;1.83;;;7.40;99.90;;;;;;5015782;28;20461;-88
2024/01/04 01:05:30;;;;;;;5.00;1.87;;;7.40;99.90;;;;;;5015971;28;20503;-88
2024/01/04 01:08:01;;;;;;;5.17;1.80;;;7.40;99.90;;;;;;5016073;28;20454;-88
2024/01/04 01:10:31;;;;;;;3.40;2.23;;;7.40;99.90;;;;;;5016868;28;20447;-88
2024/01/04 01:13:00;;;;;;;2.37;1.17;;;7.30;99.90;;;;;;5015541;28;20813;-88
2024/01/04 01:15:28;;;;;;;2.80;1.20;;;7.30;99.90;;;;;;5015302;28;20538;-88
2024/01/04 01:17:57;;;;;;;5.43;1.83;;;7.20;99.90;;;;;;5016322;28;20516;-88
2024/01/04 01:20:25;;;;;;;4.23;1.60;;;7.10;99.90;;;;;;5015990;28;20453;-88
2024/01/04 01:22:54;;;;;;;3.03;1.47;;;7.10;99.90;;;;;;5016143;28;20833;-88
2024/01/04 01:25:24;;;;;;;2.57;1.30;;;7.00;99.90;;;;;;5015529;28;20478;-88
2024/01/04 01:27:52;;;;;;;5.27;1.90;;;7.00;99.90;;;;;;5015720;28;20951;-88
2024/01/04 01:30:21;;;;;;;4.77;2.20;;;6.90;99.90;;;;;;5015158;28;20509;-88
2024/01/04 01:32:50;;;;;;;2.60;1.40;;;6.90;99.90;;;;;;5015141;28;20911;-88
2024/01/04 01:35:19;;;;;;;2.43;1.50;;;6.80;99.90;;;;;;5014948;28;20474;-88
2024/01/04 01:37:47;;;;;;;3.30;1.70;;;6.80;99.90;;;;;;5014891;28;20481;-88
2024/01/04 01:40:16;;;;;;;2.40;1.60;;;6.80;99.90;;;;;;5016298;28;20440;-88
2024/01/04 01:42:48;;;;;;;5.47;2.17;;;6.70;99.90;;;;;;5014903;28;20542;-88
2024/01/04 01:45:17;;;;;;;8.60;1.87;;;6.70;99.90;;;;;;5015255;28;20473;-88
2024/01/04 01:47:47;;;;;;;3.93;1.40;;;6.60;99.90;;;;;;5014733;28;20501;-88
2024/01/04 01:50:18;;;;;;;3.10;1.53;;;6.60;99.90;;;;;;5014820;28;21018;-88
2024/01/04 01:52:48;;;;;;;2.60;1.40;;;6.60;99.90;;;;;;5014795;28;20473;-88
2024/01/04 01:55:17;;;;;;;2.83;1.30;;;6.60;99.90;;;;;;5014354;28;20508;-87
2024/01/04 01:57:45;;;;;;;3.30;1.43;;;6.50;99.90;;;;;;5014526;28;20576;-88
2024/01/04 02:00:17;;;;;;;2.60;1.40;;;6.50;99.90;;;;;;5014435;28;20539;-88
2024/01/04 02:02:47;;;;;;;3.20;1.00;;;6.50;99.90;;;;;;5014347;28;20799;-88
2024/01/04 02:05:16;;;;;;;1.27;0.90;;;6.50;99.90;;;;;;5014486;28;20475;-88
2024/01/04 02:07:45;;;;;;;3.50;1.00;;;6.50;99.90;;;;;;5014034;28;20455;-88
2024/01/04 02:10:14;;;;;;;4.33;1.30;;;6.50;99.90;;;;;;5014142;28;20455;-88
2024/01/04 02:12:42;;;;;;;1.87;0.93;;;6.50;99.90;;;;;;5014212;28;20449;-88
2024/01/04 02:15:11;;;;;;;3.37;1.10;;;6.50;99.90;;;;;;5013997;28;20867;-87
2024/01/04 02:17:41;;;;;;;3.10;1.23;;;6.40;99.90;;;;;;5014508;28;20473;-88
2024/01/04 02:20:12;;;;;;;2.20;1.37;;;6.40;99.90;;;;;;5014193;28;20453;-88
2024/01/04 02:22:43;;;;;;;2.20;1.20;;;6.40;99.90;;;;;;5014548;28;20459;-88
2024/01/04 02:25:12;;;;;;;3.80;1.07;;;6.40;99.90;;;;;;5014994;28;20467;-88
2024/01/04 02:27:40;;;;;;;1.77;1.00;;;6.40;99.90;;;;;;5013717;28;20449;-88
2024/01/04 02:30:11;;;;;;;13.30;1.80;;;6.40;99.90;;;;;;5013803;28;20450;-88
2024/01/04 02:32:40;;;;;;;2.20;0.90;;;6.40;99.90;;;;;;5014913;28;20507;-88
2024/01/04 02:35:09;;;;;;;3.10;1.27;;;6.30;99.90;;;;;;5013672;28;20875;-88
2024/01/04 02:37:37;;;;;;;1.90;0.90;;;6.30;99.90;;;;;;5013585;28;20504;-88
2024/01/04 02:40:09;;;;;;;2.10;1.17;;;6.30;99.90;;;;;;5014055;28;20469;-88
2024/01/04 02:42:37;;;;;;;4.00;1.30;;;6.30;99.90;;;;;;5013572;28;20464;-88
2024/01/04 02:45:06;;;;;;;2.53;1.60;;;6.30;99.90;;;;;;5013652;28;20474;-88
2024/01/04 02:47:36;;;;;;;5.57;1.40;;;6.30;99.90;;;;;;5013635;28;20805;-87
2024/01/04 02:50:05;;;;;;;2.70;0.90;;;6.30;99.90;;;;;;5013671;28;20458;-87
2024/01/04 02:52:33;;;;;;;2.50;1.40;;;6.30;99.90;;;;;;5015576;28;20496;-88
2024/01/04 02:55:01;;;;;;;3.10;1.10;;;6.30;99.90;;;;;;5013891;28;21034;-88
2024/01/04 02:57:31;;;;;;;3.07;1.30;;;6.20;99.90;;;;;;5013264;28;20951;-87
2024/01/04 02:59:59;;;;;;;4.03;1.57;;;6.20;99.90;;;;;;5013267;28;20454;-87
2024/01/04 03:02:28;;;;;;;2.30;1.07;;;6.20;99.90;;;;;;5013227;28;20467;-88
2024/01/04 03:04:56;;;;;;;3.60;1.10;;;6.10;99.90;;;;;;5013179;28;20539;-87
2024/01/04 03:07:25;;;;;;;4.17;1.23;;;6.10;99.90;;;;;;5013266;28;20456;-87
2024/01/04 03:09:54;;;;;;;2.20;1.00;;;6.10;99.90;;;;;;5013575;28;20451;-87
2024/01/04 03:12:23;;;;;;;3.37;1.03;;;6.10;99.90;;;;;;5014210;28;20496;-87
2024/01/04 03:14:53;;;;;;;3.33;1.40;;;6.00;99.90;;;;;;5013066;28;20879;-86
2024/01/04 03:17:21;;;;;;;2.13;1.00;;;6.00;99.90;;;;;;5013348;28;20465;-87
2024/01/04 03:19:49;;;;;;;3.37;1.10;;;6.00;99.90;;;;;;5012960;28;20885;-87
2024/01/04 03:22:18;;;;;;;3.50;1.03;;;6.00;99.90;;;;;;5012968;28;20450;-88
2024/01/04 03:24:46;;;;;;;2.83;1.17;;;6.00;99.90;;;;;;5013611;28;20841;-88
2024/01/04 03:27:14;;;;;;;1.97;1.00;;;6.00;99.90;;;;;;5013437;28;20453;-88
2024/01/04 03:29:43;;;;;;;2.60;0.93;;;5.90;99.90;;;;;;5013352;28;20449;-88
2024/01/04 03:32:13;;;;;;;5.53;1.47;;;5.90;99.90;;;;;;5013167;28;20457;-87
2024/01/04 03:34:41;;;;;;;2.70;1.07;;;5.80;99.90;;;;;;5013441;28;20476;-88
2024/01/04 03:37:10;;;;;;;1.23;0.70;;;5.90;99.90;;;;;;5014569;28;20445;-88
2024/01/04 03:39:38;;;;;;;3.30;0.97;;;5.80;99.90;;;;;;5013313;28;20532;-87
2024/01/04 03:42:06;;;;;;;2.43;1.10;;;5.80;99.90;;;;;;5013474;28;20456;-87
2024/01/04 03:44:36;;;;;;;2.20;0.93;;;5.80;99.90;;;;;;5014056;28;20459;-87
2024/01/04 03:47:05;;;;;;;2.30;1.00;;;5.80;99.90;;;;;;5013039;28;20454;-87
2024/01/04 03:49:35;;;;;;;2.40;0.90;;;5.70;99.90;;;;;;5012958;28;20443;-87
2024/01/04 03:52:04;;;;;;;5.50;1.00;;;5.70;99.90;;;;;;5012767;28;21019;-88
2024/01/04 03:54:32;;;;;;;2.80;1.57;;;5.70;99.90;;;;;;5012870;28;20468;-88
2024/01/04 03:57:01;;;;;;;3.90;0.90;;;5.70;99.90;;;;;;5012959;28;20443;-88
2024/01/04 03:59:29;;;;;;;3.10;1.30;;;5.70;99.90;;;;;;5012770;28;20523;-87
2024/01/04 04:01:58;;;;;;;3.63;1.20;;;5.70;99.90;;;;;;5012709;28;20448;-88
2024/01/04 04:04:26;;;;;;;2.20;0.90;;;5.70;99.90;;;;;;5013029;28;20484;-87
2024/01/04 04:06:56;;;;;;;1.83;0.90;;;5.70;99.90;;;;;;5012999;28;20450;-87
2024/01/04 04:09:24;;;;;;;2.57;1.00;;;5.60;99.90;;;;;;5012653;28;20907;-88
2024/01/04 04:11:53;;;;;;;1.20;0.70;;;5.60;99.90;;;;;;5014336;28;20488;-87
2024/01/04 04:14:22;;;;;;;3.30;0.80;;;5.50;99.90;;;;;;5012700;28;20483;-88
2024/01/04 04:16:50;;;;;;;1.93;0.90;;;5.50;99.90;;;;;;5012744;28;20523;-87
2024/01/04 04:19:18;;;;;;;1.73;0.90;;;5.50;99.90;;;;;;5012621;28;20472;-88
2024/01/04 04:21:47;;;;;;;2.40;1.10;;;5.50;99.90;;;;;;5013676;28;20433;-88
2024/01/04 04:24:16;;;;;;;1.50;0.60;;;5.40;99.90;;;;;;5012351;28;20494;-88
2024/01/04 04:26:45;;;;;;;1.70;0.90;;;5.40;99.90;;;;;;5012506;28;20460;-88
2024/01/04 04:29:13;;;;;;;1.83;0.80;;;5.30;99.90;;;;;;5012315;28;20954;-88
2024/01/04 04:31:42;;;;;;;2.70;1.20;;;5.30;99.90;;;;;;5012438;28;20448;-88
2024/01/04 04:34:10;;;;;;;1.57;0.90;;;5.30;99.90;;;;;;5012212;28;20903;-88
2024/01/04 04:36:40;;;;;;;1.97;0.80;;;5.20;99.90;;;;;;5012335;28;20531;-88
2024/01/04 04:39:09;;;;;;;1.70;0.80;;;5.20;99.90;;;;;;5012214;28;20525;-88
2024/01/04 04:41:40;;;;;;;2.00;0.90;;;5.20;99.90;;;;;;5013356;28;20439;-86
2024/01/04 04:44:08;;;;;;;1.90;0.87;;;5.20;99.90;;;;;;5012302;28;20476;-88
2024/01/04 04:46:36;;;;;;;1.93;0.80;;;5.20;99.90;;;;;;5013355;28;20437;-88
2024/01/04 04:49:05;;;;;;;2.83;1.10;;;5.20;99.90;;;;;;5012124;28;20850;-88
2024/01/04 04:51:33;;;;;;;1.40;0.80;;;5.10;99.90;;;;;;5013377;28;20451;-88
2024/01/04 04:54:03;;;;;;;2.10;1.20;;;5.10;99.90;;;;;;5015680;28;20479;-88
2024/01/04 04:56:31;;;;;;;2.73;1.23;;;5.10;99.90;;;;;;5015702;28;20448;-87
2024/01/04 04:59:02;;;;;;;2.20;1.30;;;5.10;99.90;;;;;;5015456;28;20474;-88
2024/01/04 05:01:30;;;;;;;1.77;1.10;;;5.00;99.90;;;;;;5015589;28;20951;-88
2024/01/04 05:03:59;;;;;;;1.90;1.00;;;5.00;99.90;;;;;;5015371;28;20476;-89
2024/01/04 05:06:27;;;;;;;3.67;1.53;;;5.00;99.90;;;;;;5015406;28;20455;-88
2024/01/04 05:08:56;;;;;;;1.98;1.40;;;5.00;99.90;;;;;;5014898;28;20971;-88
2024/01/04 05:11:24;;;;;;;2.80;1.50;;;5.00;99.90;;;;;;5015112;28;20202;-88
2024/01/04 05:13:52;;;;;;;2.57;1.40;;;5.00;99.90;;;;;;5015201;28;20858;-88
2024/01/04 05:16:22;;;;;;;2.33;1.20;;;5.00;99.90;;;;;;5015192;28;20460;-87
2024/01/04 05:18:50;;;;;;;3.53;1.50;;;4.90;99.90;;;;;;5015347;28;20460;-88
2024/01/04 05:21:19;;;;;;;2.57;1.13;;;4.90;99.90;;;;;;5015362;28;20448;-88
2024/01/04 05:23:47;;;;;;;1.87;1.27;;;4.90;99.90;;;;;;5014832;28;20451;-89
2024/01/04 05:26:22;;;;;;;2.47;1.20;;;4.80;99.90;;;;;;5015097;28;20449;-86
2024/01/04 05:28:51;;;;;;;2.77;1.50;;;4.80;99.90;;;;;;5015117;28;20555;-88
2024/01/04 05:31:22;;;;;;;2.37;1.40;;;4.80;99.90;;;;;;5014944;28;20486;-88
2024/01/04 05:33:50;;;;;;;3.17;1.33;;;4.80;99.90;;;;;;5014783;28;20480;-88
2024/01/04 05:36:19;;;;;;;3.30;1.63;;;4.70;99.90;;;;;;5015014;28;20459;-88
2024/01/04 05:38:48;;;;;;;3.40;1.60;;;4.70;99.90;;;;;;5014759;28;20459;-89
2024/01/04 05:41:18;;;;;;;4.10;1.60;;;4.70;99.90;;;;;;5014589;28;20555;-88
2024/01/04 05:43:46;;;;;;;1.90;1.23;;;4.60;99.90;;;;;;5014544;28;20441;-88
2024/01/04 05:46:16;;;;;;;2.57;1.30;;;4.70;99.90;;;;;;5014516;28;20456;-88
2024/01/04 05:48:46;;;;;;;3.00;1.20;;;4.60;99.90;;;;;;5014459;28;20443;-88
2024/01/04 05:51:14;;;;;;;2.83;1.67;;;4.60;99.90;;;;;;5014455;28;20440;-88
2024/01/04 05:53:45;;;;;;;4.40;1.03;;;4.50;99.90;;;;;;5014310;28;20451;-88
2024/01/04 05:56:14;;;;;;;2.50;1.10;;;4.50;99.90;;;;;;5014335;28;20530;-88
2024/01/04 05:58:42;;;;;;;2.50;1.30;;;4.50;99.90;;;;;;5014217;28;20448;-87
2024/01/04 06:01:11;;;;;;;2.37;1.33;;;4.40;99.90;;;;;;5014199;28;20530;-87
2024/01/04 06:03:40;;;;;;;3.17;1.37;;;4.40;99.90;;;;;;5012925;28;20455;-88
2024/01/04 06:06:14;;;;;;;3.47;1.67;;;4.40;99.90;;;;;;5014322;28;20440;-87
2024/01/04 06:08:43;;;;;;;5.73;1.60;;;4.40;99.90;;;;;;5014254;28;20466;-87
2024/01/04 06:11:11;;;;;;;2.27;1.37;;;4.40;99.90;;;;;;5014661;28;20445;-88
2024/01/04 06:13:40;;;;;;;2.20;1.40;;;4.40;99.90;;;;;;5014040;28;20533;-87
2024/01/04 06:16:11;;;;;;;4.10;1.70;;;4.30;99.90;;;;;;5014088;28;20950;-87
2024/01/04 06:18:39;;;;;;;2.20;1.57;;;4.30;99.90;;;;;;5013887;28;20480;-87
2024/01/04 06:21:09;;;;;;;1.80;1.27;;;4.30;99.90;;;;;;5014020;28;20478;-87
2024/01/04 06:23:38;;;;;;;2.80;1.73;;;4.30;99.90;;;;;;5014763;28;20472;-89
2024/01/04 06:26:06;;;;;;;2.53;1.50;;;4.30;99.90;;;;;;5013959;28;20491;-89
2024/01/04 06:28:36;;;;;;;2.17;1.77;;;4.20;99.90;;;;;;5014033;28;20502;-89
2024/01/04 06:31:05;;;;;;;2.67;1.53;;;4.20;99.90;;;;;;5015881;28;20451;-89
2024/01/04 06:33:33;;;;;;;2.90;1.50;;;4.20;99.90;;;;;;5017281;28;20466;-88
2024/01/04 06:36:02;;;;;;;4.00;1.40;;;4.20;99.90;;;;;;5013609;28;20456;-88
2024/01/04 06:38:32;;;;;;;4.40;1.60;;;4.20;99.90;;;;;;5013717;28;20455;-87
2024/01/04 06:41:00;;;;;;;3.30;1.50;;;4.20;99.90;;;;;;5013542;28;20468;-89
2024/01/04 06:43:29;;;;;;;2.70;1.53;;;4.20;99.90;;;;;;5013412;28;20971;-88
2024/01/04 06:45:58;;;;;;;2.03;1.33;;;4.10;99.90;;;;;;5013333;28;20467;-88
2024/01/04 06:48:27;;;;;;;2.17;1.37;;;4.10;99.90;;;;;;5013402;28;20538;-88
2024/01/04 06:50:56;;;;;;;3.40;1.47;;;4.10;99.90;;;;;;5013414;28;20452;-87
2024/01/04 06:53:24;;;;;;;2.40;1.30;;;4.10;99.90;;;;;;5013308;28;20502;-89
2024/01/04 06:55:54;;;;;;;3.43;1.30;;;4.10;99.90;;;;;;5013208;28;20479;-89
2024/01/04 06:58:22;;;;;;;2.37;1.57;;;4.10;99.90;;;;;;5013358;28;20443;-88
2024/01/04 07:00:52;;;;;;;2.47;1.40;;;4.10;99.90;;;;;;5013159;28;20472;-88
2024/01/04 07:03:20;;;;;;;3.93;1.47;;;4.00;99.90;;;;;;5014350;28;20435;-87
2024/01/04 07:05:49;;;;;;;2.07;1.43;;;4.10;99.90;;;;;;5013288;28;20483;-88
2024/01/04 07:08:18;;;;;;;2.30;1.40;;;4.00;99.90;;;;;;5012982;28;20510;-87
2024/01/04 07:10:46;;;;;;;2.30;1.73;;;4.00;99.90;;;;;;5013963;28;20452;-88
2024/01/04 07:13:16;;;;;;;2.47;1.30;;;4.00;99.90;;;;;;5012923;28;20442;-88
2024/01/04 07:15:44;;;;;;;2.70;1.40;;;4.30;99.90;;;;;;5012633;28;20534;-87
2024/01/04 07:18:13;;;;;;;3.00;1.50;;;4.00;99.90;;;;;;5012981;28;20979;-87
2024/01/04 07:20:41;;;;;;;10.40;2.50;;;4.00;99.90;;;;;;5013476;28;20467;-88
2024/01/04 07:23:10;;;;;;;3.83;1.90;;;4.00;99.90;;;;;;5013586;28;20454;-88
2024/01/04 07:25:38;;;;;;;2.87;1.60;;;4.00;99.90;;;;;;5012931;28;20843;-88
2024/01/04 07:28:07;;;;;;;3.30;2.00;;;4.00;99.90;;;;;;5013706;28;20455;-88
2024/01/04 07:30:36;;;;;;;3.40;1.50;;;3.90;99.90;;;;;;5014908;28;20451;-88
2024/01/04 07:33:05;;;;;;;3.10;1.30;;;3.90;99.90;;;;;;5013445;28;20502;-88
2024/01/04 07:35:34;;;;;;;5.40;1.43;;;3.90;99.90;;;;;;5013052;28;20567;-87
2024/01/04 07:38:02;;;;;;;4.33;1.87;;;3.90;99.90;;;;;;5012805;28;20448;-87
2024/01/04 07:40:30;;;;;;;3.17;1.60;;;4.00;99.90;;;;;;5012865;28;20526;-88
2024/01/04 07:42:59;;;;;;;4.27;1.63;;;3.90;99.90;;;;;;5013946;28;20435;-88
2024/01/04 07:45:27;;;;;;;5.23;1.77;;;3.90;99.90;;;;;;5012640;28;20529;-88
2024/01/04 07:47:56;;;;;;;2.90;1.97;;;3.90;99.90;;;;;;5012582;28;20444;-88
2024/01/04 07:50:25;;;;;;;3.93;2.07;;;3.80;99.90;;;;;;5013976;28;20440;-88
2024/01/04 07:52:53;;;;;;;3.00;1.70;;;4.00;99.90;;;;;;5012721;28;20971;-87
2024/01/04 07:55:22;;;;;;;3.37;1.90;;;3.80;99.90;;;;;;5012525;28;20480;-88
2024/01/04 07:57:50;;;;;;;3.20;1.80;;;3.70;99.90;;;;;;5012596;28;20440;-88
2024/01/04 08:00:19;;;;;;;3.73;1.90;;;3.70;99.90;;;;;;5012554;28;20455;-88
2024/01/04 08:02:48;;;;;;;2.40;2.10;;;3.70;99.90;;;;;;5012845;28;20463;-88
2024/01/04 08:05:17;;;;;;;3.20;1.80;;;3.60;99.90;;;;;;5012860;28;20472;-87
2024/01/04 08:07:46;;;;;;;2.80;1.77;;;3.60;99.90;;;;;;5012352;28;20459;-88
2024/01/04 08:10:14;;;;;;;2.90;1.90;;;3.60;99.90;;;;;;5012757;28;20463;-88
2024/01/04 08:12:45;;;;;;;3.83;1.80;;;3.60;99.90;;;;;;5012349;28;20448;-87
2024/01/04 08:15:15;;;;;;;2.57;1.90;;;3.60;99.90;;;;;;4996377;28;20812;-88
2024/01/04 08:17:44;;;;;;;2.07;1.37;;;3.60;99.90;;;;;;5012581;28;20458;-88
2024/01/04 08:20:13;;;;;;;2.43;1.77;;;3.70;99.90;;;;;;5012341;28;20447;-88
2024/01/04 08:22:44;;;;;;;4.17;1.97;;;3.60;99.90;;;;;;5012227;28;20471;-89
2024/01/04 08:25:13;;;;;;;3.40;2.00;;;3.50;99.90;;;;;;5012320;28;20471;-88
2024/01/04 08:27:41;;;;;;;2.57;1.43;;;3.80;99.90;;;;;;5015446;28;20456;-88
2024/01/04 08:30:10;;;;;;;3.53;1.80;;;3.50;99.90;;;;;;5015904;28;20509;-88
2024/01/04 08:32:39;;;;;;;3.20;1.80;;;3.50;99.90;;;;;;5016213;28;20459;-89
2024/01/04 08:35:08;;;;;;;3.30;1.80;;;3.50;99.90;;;;;;5015752;28;21020;-88
2024/01/04 08:37:37;;;;;;;2.53;1.83;;;3.40;99.90;;;;;;5015980;28;20918;-88
2024/01/04 08:40:08;;;;;;;6.33;2.03;;;3.40;99.90;;;;;;5015905;28;20452;-88
2024/01/04 08:42:37;;;;;;;3.20;1.77;;;3.40;99.90;;;;;;5015923;28;20456;-89
2024/01/04 08:45:07;;;;;;;2.70;1.60;;;3.40;99.90;;;;;;5016395;28;20570;-89
2024/01/04 08:47:35;;;;;;;2.90;2.00;;;3.40;99.90;;;;;;5017008;28;20461;-89
2024/01/04 08:50:05;;;;;;;4.10;2.80;;;3.40;99.90;;;;;;5017200;28;20803;-89
2024/01/04 08:52:34;;;;;;;3.87;1.70;;;3.40;99.90;;;;;;5017076;28;20474;-89
2024/01/04 08:55:03;;;;;;;3.50;2.07;;;3.40;99.90;;;;;;5023339;28;20854;-89
2024/01/04 08:57:33;;;;;;;6.03;1.87;;;3.40;99.90;;;;;;5016776;28;20452;-87
2024/01/04 09:00:02;;;;;;;3.07;1.50;;;3.40;99.90;;;;;;5016935;28;20775;-87
2024/01/04 09:02:31;;;;;;;3.23;2.10;;;3.40;99.90;;;;;;5015403;28;20980;-87
2024/01/04 09:04:59;;;;;;;3.57;2.03;;;3.50;99.90;;;;;;5015304;28;20482;-87
2024/01/04 09:07:28;;;;;;;3.17;1.67;;;3.80;99.90;;;;;;5015324;28;20466;-87
2024/01/04 09:09:56;;;;;;;2.80;1.90;;;3.40;99.90;;;;;;5015306;28;20456;-87
2024/01/04 09:12:24;;;;;;;6.17;1.97;;;3.60;99.90;;;;;;5015309;28;20458;-87
2024/01/04 09:14:55;;;;;;;4.77;1.93;;;3.40;99.90;;;;;;5015223;28;20479;-87
2024/01/04 09:17:24;;;;;;;2.90;2.17;;;3.60;99.90;;;;;;5015248;28;20458;-87
2024/01/04 09:19:52;;;;;;;3.10;1.77;;;3.50;99.90;;;;;;5015156;28;20965;-87
2024/01/04 09:22:21;;;;;;;4.87;2.00;;;3.40;99.90;;;;;;5015189;28;20472;-87
2024/01/04 09:24:49;;;;;;;2.40;1.73;;;3.40;99.90;;;;;;5015414;28;20470;-88
2024/01/04 09:27:17;;;;;;;2.77;2.10;;;3.40;99.90;;;;;;5015014;28;20452;-88
2024/01/04 09:29:47;;;;;;;3.80;2.10;;;3.40;99.90;;;;;;5014924;28;20539;-88
2024/01/04 09:32:17;;;;;;;2.60;1.80;;;3.70;99.90;;;;;;5014897;28;20463;-89
2024/01/04 09:34:45;;;;;;;3.00;2.27;;;3.40;99.90;;;;;;5014755;28;20468;-88
2024/01/04 09:37:14;;;;;;;3.00;1.63;;;3.50;99.90;;;;;;5014550;28;20856;-88
2024/01/04 09:39:42;;;;;;;3.93;1.80;;;3.50;99.90;;;;;;5014624;28;20451;-88
2024/01/04 09:42:11;;;;;;;2.90;1.70;;;3.70;99.90;;;;;;5014617;28;20483;-88
2024/01/04 09:44:42;;;;;;;2.60;2.10;;;3.50;99.90;;;;;;5015880;28;20452;-88
2024/01/04 09:47:13;;;;;;;4.20;2.27;;;3.50;99.90;;;;;;5014599;28;20941;-88
2024/01/04 09:49:44;;;;;;;2.93;1.83;;;3.50;99.90;;;;;;5015313;28;20531;-88
2024/01/04 09:52:13;;;;;;;3.77;1.93;;;3.50;99.90;;;;;;5014445;28;20443;-87
2024/01/04 09:54:43;;;;;;;7.27;2.30;;;3.60;99.90;;;;;;5014309;28;20507;-88
2024/01/04 09:57:11;;;;;;;3.83;2.53;;;3.60;99.90;;;;;;5014768;28;20819;-88
2024/01/04 09:59:40;;;;;;;2.80;2.00;;;3.60;99.90;;;;;;5014558;28;20452;-87
2024/01/04 10:02:12;;;;;;;3.80;2.03;;;3.50;99.90;;;;;;5014229;28;21041;-88
2024/01/04 10:04:44;;;;;;;5.43;2.77;;;3.60;99.90;;;;;;5014320;28;20467;-88
2024/01/04 10:07:19;;;;;;;4.83;2.60;;;3.60;99.90;;;;;;5014145;28;20483;-88
2024/01/04 10:09:53;;;;;;;3.07;2.07;;;3.60;99.90;;;;;;5015199;28;20452;-88
2024/01/04 10:12:22;;;;;;;2.90;2.33;;;3.60;99.90;;;;;;5014154;28;20458;-87
2024/01/04 10:14:51;;;;;;;3.50;2.13;;;3.60;99.90;;;;;;5014004;28;20890;-88
2024/01/04 10:17:19;;;;;;;5.70;2.50;;;3.60;99.90;;;;;;5014189;28;20488;-87
2024/01/04 10:19:49;;;;;;;3.80;2.70;;;3.60;99.90;;;;;;5014149;28;20464;-87
2024/01/04 10:22:21;;;;;;;3.90;2.30;;;3.70;99.90;;;;;;5013965;28;21055;-88
2024/01/04 10:24:51;;;;;;;5.33;2.30;;;3.70;99.90;;;;;;5013791;28;20479;-88
2024/01/04 10:27:20;;;;;;;3.20;1.97;;;3.70;99.90;;;;;;5014163;28;20448;-88
2024/01/04 10:29:51;;;;;;;3.70;2.13;;;3.70;99.90;;;;;;5013639;28;20452;-88
2024/01/04 10:32:20;;;;;;;3.60;2.30;;;3.80;99.90;;;;;;5013878;28;20985;-87
2024/01/04 10:34:49;;;;;;;3.20;1.77;;;3.70;99.90;;;;;;5013607;28;20526;-88
2024/01/04 10:37:18;;;;;;;4.50;2.10;;;3.80;99.90;;;;;;5013543;28;20505;-88
2024/01/04 10:39:57;;;;;;;3.40;2.27;;;3.80;99.90;;;;;;5013688;28;20448;-88
2024/01/04 10:42:26;;;;;;;3.93;1.83;;;3.90;99.90;;;;;;5013569;28;20563;-88
2024/01/04 10:44:55;;;;;;;7.00;1.90;;;3.90;99.90;;;;;;5013413;28;20984;-87
2024/01/04 10:47:24;;;;;;;5.87;2.17;;;3.90;99.90;;;;;;5013511;28;20460;-89
2024/01/04 10:49:59;;;;;;;3.67;1.90;;;4.00;99.90;;;;;;5012993;28;20950;-88
2024/01/04 10:52:31;;;;;;;4.30;1.70;;;3.90;99.90;;;;;;5013557;28;20530;-88
2024/01/04 10:55:01;;;;;;;3.10;1.77;;;3.90;99.90;;;;;;5013584;28;20478;-87
2024/01/04 10:57:31;;;;;;;3.03;1.67;;;4.00;99.90;;;;;;5013884;28;20452;-88
2024/01/04 11:00:03;;;;;;;4.13;1.60;;;4.00;99.90;;;;;;5014519;28;20539;-88
2024/01/04 11:02:35;;;;;;;3.40;1.97;;;3.90;99.90;;;;;;5017565;28;20884;-87
2024/01/04 11:05:09;;;;;;;3.80;1.67;;;3.90;99.90;;;;;;5014872;28;20513;-88
2024/01/04 11:07:39;;;;;;;2.47;1.93;;;4.00;99.90;;;;;;5015252;28;20450;-88
2024/01/04 11:10:10;;;;;;;1.90;1.60;;;4.00;99.90;;;;;;5015210;28;20961;-88
2024/01/04 11:12:40;;;;;;;5.63;1.87;;;4.00;99.90;;;;;;5015992;28;20984;-88
2024/01/04 11:15:12;;;;;;;2.17;1.93;;;4.00;99.90;;;;;;5016535;28;20559;-89
2024/01/04 11:17:59;;;;;;;3.83;2.00;;;4.00;99.90;;;;;;5016055;28;20423;-87
2024/01/04 11:20:43;;;;;;;2.00;1.40;;;4.00;99.90;;;;;;5015040;28;20432;-87
2024/01/04 11:23:27;;;;;;;4.60;2.10;;;4.00;99.90;;;;;;5013426;28;21008;-88
2024/01/04 11:26:20;;;;;;;4.87;1.80;;;4.00;99.90;;;;;;5012895;28;21038;-87
2024/01/04 11:28:49;;;;;;;4.23;2.00;;;4.00;99.90;;;;;;5012978;28;20551;-87
2024/01/04 11:31:18;;;;;;;3.10;1.73;;;3.90;99.90;;;;;;5012732;28;20452;-87
2024/01/04 11:33:50;;;;;;;3.43;2.00;;;4.00;99.90;;;;;;5012680;28;20487;-87
2024/01/04 11:36:21;;;;;;;6.73;2.30;;;4.00;99.90;;;;;;5013039;28;20539;-87
2024/01/04 11:38:50;;;;;;;4.57;2.20;;;4.00;99.90;;;;;;5012833;28;20896;-87
2024/01/04 11:41:18;;;;;;;2.80;1.83;;;4.00;99.90;;;;;;5012897;28;20447;-88
2024/01/04 11:43:49;;;;;;;4.83;2.07;;;4.00;99.90;;;;;;5012776;28;20474;-87
2024/01/04 11:46:22;;;;;;;2.83;1.80;;;4.00;99.90;;;;;;5012763;28;20444;-87
2024/01/04 11:48:55;;;;;;;3.80;2.20;;;4.00;99.90;;;;;;5012624;28;20464;-87
2024/01/04 11:51:34;;;;;;;5.00;2.63;;;4.00;99.90;;;;;;5012990;28;20452;-86
2024/01/04 11:54:04;;;;;;;4.73;2.57;;;4.00;99.90;;;;;;5012783;28;20905;-87
2024/01/04 11:56:32;;;;;;;3.50;2.53;;;4.30;99.90;;;;;;5012723;28;20452;-87
2024/01/04 11:59:08;;;;;;;5.70;2.53;;;4.10;99.90;;;;;;5012789;28;20454;-87
2024/01/04 12:01:40;;;;;;;4.03;2.37;;;4.10;99.90;;;;;;5015709;28;20451;-87
2024/01/04 12:04:13;;;;;;;2.77;1.77;;;4.10;99.90;;;;;;5016452;28;20551;-87
2024/01/04 12:06:45;;;;;;;3.13;2.13;;;4.10;99.90;;;;;;5016552;28;20452;-87
2024/01/04 12:09:15;;;;;;;3.90;1.77;;;4.10;99.90;;;;;;5016967;28;20452;-87
2024/01/04 12:11:54;;;;;;;2.63;1.63;;;4.10;99.90;;;;;;5017441;28;20436;-87
2024/01/04 12:14:23;;;;;;;4.53;1.60;;;4.10;99.90;;;;;;5016506;28;20513;-87
2024/01/04 12:16:52;;;;;;;3.07;1.80;;;4.10;99.90;;;;;;5017896;28;20541;-86
2024/01/04 12:19:20;;;;;;;5.03;1.90;;;4.00;99.90;;;;;;5016474;28;20961;-86
2024/01/04 12:21:50;;;;;;;2.13;1.67;;;4.10;99.90;;;;;;5017046;28;20459;-87
2024/01/04 12:24:19;;;;;;;2.73;1.57;;;4.10;99.90;;;;;;5016246;28;20484;-87
2024/01/04 12:26:48;;;;;;;4.13;1.90;;;4.00;99.90;;;;;;5016274;28;20507;-88
2024/01/04 12:29:16;;;;;;;3.80;2.27;;;4.00;99.90;;;;;;5017468;28;20444;-87
2024/01/04 12:31:45;;;;;;;3.40;1.80;;;4.10;99.90;;;;;;5016230;28;20497;-87
2024/01/04 12:34:13;;;;;;;3.00;1.77;;;4.10;99.90;;;;;;5016329;28;20463;-87
2024/01/04 12:36:43;;;;;;;2.60;1.50;;;4.10;99.90;;;;;;5017346;28;20440;-87
2024/01/04 12:39:14;;;;;;;2.30;1.90;;;4.00;99.90;;;;;;5016003;28;20454;-87
2024/01/04 12:41:45;;;;;;;4.07;1.60;;;4.00;99.90;;;;;;5017163;28;20835;-88
2024/01/04 12:44:14;;;;;;;3.17;1.80;;;4.00;99.90;;;;;;5015830;28;20865;-88
2024/01/04 12:46:46;;;;;;;2.90;2.00;;;4.00;99.90;;;;;;5015701;28;20554;-88
2024/01/04 12:49:16;;;;;;;3.03;1.83;;;3.90;99.90;;;;;;5015848;28;20503;-88
2024/01/04 12:51:50;;;;;;;3.50;2.10;;;4.00;99.90;;;;;;5017008;28;20418;-88
2024/01/04 12:54:19;;;;;;;4.00;2.57;;;3.90;99.90;;;;;;5015640;28;20468;-87
2024/01/04 12:56:50;;;;;;;3.60;2.40;;;3.90;99.90;;;;;;5016754;28;20446;-88
2024/01/04 12:59:19;;;;;;;3.37;2.23;;;4.00;99.90;;;;;;5015540;28;20443;-88
2024/01/04 13:01:47;;;;;;;6.83;3.43;;;3.90;99.90;;;;;;5015419;28;20451;-87
2024/01/04 13:04:16;;;;;;;3.67;2.40;;;3.90;99.90;;;;;;5015104;28;20533;-87
2024/01/04 13:06:44;;;;;;;3.50;2.60;;;3.80;99.90;;;;;;5015522;28;20484;-87
2024/01/04 13:09:17;;;;;;;7.90;3.10;;;3.90;99.90;;;;;;5015327;28;20460;-87